createdAt,value
2023-05-08T00:00:58.976Z,5.47
2023-05-08T00:05:51.831Z,7.07
2023-05-08T00:08:18.136Z,4.97
2023-05-08T00:10:44.408Z,4.88
2023-05-08T00:13:10.656Z,5.03
2023-05-08T00:15:36.936Z,8.88
2023-05-08T00:18:03.403Z,5.60
2023-05-08T00:20:29.656Z,8.93
2023-05-08T00:22:57.734Z,13.93
2023-05-08T00:25:23.967Z,16.10
2023-05-08T00:27:50.745Z,17.48
2023-05-08T00:30:17.233Z,15.63
2023-05-08T00:32:43.552Z,12.73
2023-05-08T00:35:09.837Z,63.42
2023-05-08T00:37:37.718Z,34.08
2023-05-08T00:40:04.098Z,59.78
2023-05-08T00:42:30.394Z,27.92
2023-05-08T00:44:56.892Z,45.78
2023-05-08T00:47:23.398Z,33.30
2023-05-08T00:49:49.803Z,53.40
2023-05-08T00:52:16.433Z,27.60
2023-05-08T00:54:42.697Z,14.75
2023-05-08T00:57:09.217Z,17.15
2023-05-08T00:59:36.056Z,40.80
2023-05-08T01:02:02.562Z,41.17
2023-05-08T01:04:30.148Z,37.00
2023-05-08T01:06:56.459Z,9.65
2023-05-08T01:09:22.715Z,13.02
2023-05-08T01:11:54.674Z,7.38
2023-05-08T01:14:25.061Z,15.48
2023-05-08T01:16:51.307Z,14.88
2023-05-08T01:19:29.665Z,36.50
2023-05-08T01:22:12.355Z,25.33
2023-05-08T01:24:38.573Z,25.88
2023-05-08T01:27:14.458Z,21.73
2023-05-08T01:29:59.449Z,37.70
2023-05-08T01:32:42.974Z,19.65
2023-05-08T01:35:23.891Z,26.13
2023-05-08T01:37:50.261Z,50.25
2023-05-08T01:40:35.036Z,22.50
2023-05-08T01:46:25.347Z,11.90
2023-05-08T01:48:59.081Z,10.00
2023-05-08T01:51:27.805Z,12.65
2023-05-08T01:53:58.951Z,12.23
2023-05-08T01:56:27.050Z,12.80
2023-05-08T01:58:54.285Z,11.68
2023-05-08T02:01:22.715Z,9.73
2023-05-08T02:03:50.081Z,11.80
2023-05-08T02:06:18.043Z,10.20
2023-05-08T02:08:45.592Z,9.20
2023-05-08T02:11:12.621Z,7.57
2023-05-08T02:13:39.458Z,8.95
2023-05-08T02:16:07.124Z,11.65
2023-05-08T02:18:34.493Z,12.88
2023-05-08T02:21:02.232Z,8.32
2023-05-08T02:23:28.835Z,7.68
2023-05-08T02:25:55.681Z,9.65
2023-05-08T02:28:22.928Z,11.38
2023-05-08T02:30:49.746Z,21.20
2023-05-08T02:33:16.762Z,84.35
2023-05-08T02:35:44.021Z,53.15
2023-05-08T02:38:10.883Z,66.47
2023-05-08T02:40:44.300Z,41.55
2023-05-08T02:43:10.575Z,44.20
2023-05-08T02:45:39.655Z,40.28
2023-05-08T02:48:06.179Z,60.45
2023-05-08T02:50:35.412Z,43.38
2023-05-08T02:53:08.239Z,23.10
2023-05-08T02:55:43.896Z,21.85
2023-05-08T02:58:22.210Z,33.45
2023-05-08T03:01:06.588Z,20.10
2023-05-08T03:03:37.928Z,60.00
2023-05-08T03:06:08.112Z,56.20
2023-05-08T03:08:35.190Z,16.42
2023-05-08T03:11:04.094Z,35.70
2023-05-08T03:13:32.213Z,48.95
2023-05-08T03:16:00.138Z,43.30
2023-05-08T03:18:28.677Z,71.35
2023-05-08T03:20:56.394Z,56.90
2023-05-08T03:23:23.478Z,92.38
2023-05-08T03:25:50.389Z,87.20
2023-05-08T03:28:17.632Z,77.65
2023-05-08T03:30:44.078Z,35.95
2023-05-08T03:33:11.657Z,40.90
2023-05-08T03:35:38.797Z,36.08
2023-05-08T03:38:06.633Z,173.45
2023-05-08T03:40:36.658Z,104.50
2023-05-08T03:43:03.706Z,38.88
2023-05-08T03:45:31.313Z,38.92
2023-05-08T03:47:59.709Z,57.40
2023-05-08T03:50:26.199Z,73.32
2023-05-08T03:52:52.708Z,49.63
2023-05-08T03:55:19.049Z,43.90
2023-05-08T03:57:57.551Z,25.20
2023-05-08T04:00:26.758Z,35.95
2023-05-08T04:02:57.536Z,32.00
2023-05-08T04:05:38.057Z,36.33
2023-05-08T04:10:32.099Z,48.63
2023-05-08T04:13:09.817Z,23.20
2023-05-08T04:15:43.224Z,53.45
2023-05-08T04:18:17.142Z,32.20
2023-05-08T04:20:46.316Z,17.48
2023-05-08T04:23:14.078Z,32.80
2023-05-08T04:25:41.093Z,26.75
2023-05-08T04:28:07.596Z,13.23
2023-05-08T04:30:34.367Z,15.40
2023-05-08T04:33:02.515Z,28.48
2023-05-08T04:35:29.260Z,10.13
2023-05-08T04:37:56.021Z,13.90
2023-05-08T04:40:22.393Z,11.77
2023-05-08T04:42:48.692Z,9.55
2023-05-08T04:45:15.282Z,9.85
2023-05-08T04:47:41.647Z,9.77
2023-05-08T04:50:08.283Z,8.50
2023-05-08T04:52:34.617Z,8.68
2023-05-08T04:55:00.909Z,8.95
2023-05-08T04:57:27.214Z,8.45
2023-05-08T04:59:53.532Z,8.60
2023-05-08T05:02:19.870Z,8.30
2023-05-08T05:04:46.228Z,8.98
2023-05-08T05:07:12.739Z,11.35
2023-05-08T05:09:39.345Z,9.35
2023-05-08T05:12:06.056Z,8.80
2023-05-08T05:14:32.332Z,9.65
2023-05-08T05:16:58.800Z,9.95
2023-05-08T05:19:25.474Z,9.73
2023-05-08T05:21:51.776Z,10.18
2023-05-08T05:24:18.060Z,9.68
2023-05-08T05:26:44.395Z,9.40
2023-05-08T05:29:11.229Z,11.50
2023-05-08T05:31:37.728Z,9.23
2023-05-08T05:34:04.636Z,9.50
2023-05-08T05:36:30.958Z,9.70
2023-05-08T05:38:57.274Z,10.13
2023-05-08T05:41:24.245Z,9.68
2023-05-08T05:43:50.590Z,10.63
2023-05-08T05:46:17.021Z,9.82
2023-05-08T05:48:43.339Z,9.60
2023-05-08T05:51:09.704Z,11.23
2023-05-08T05:53:36.036Z,11.63
2023-05-08T05:56:02.398Z,13.88
2023-05-08T05:58:28.643Z,12.02
2023-05-08T06:00:54.961Z,12.25
2023-05-08T06:03:21.393Z,13.48
2023-05-08T06:05:47.909Z,14.63
2023-05-08T06:08:15.765Z,16.60
2023-05-08T06:10:42.079Z,14.40
2023-05-08T06:13:09.663Z,15.50
2023-05-08T06:15:36.130Z,19.92
2023-05-08T06:18:02.485Z,26.25
2023-05-08T06:20:28.831Z,20.45
2023-05-08T06:22:55.217Z,20.10
2023-05-08T06:25:21.500Z,26.10
2023-05-08T06:27:47.804Z,27.63
2023-05-08T06:30:14.231Z,30.70
2023-05-08T06:32:40.597Z,28.67
2023-05-08T06:35:07.180Z,23.98
2023-05-08T06:37:33.432Z,26.95
2023-05-08T06:40:11.007Z,27.52
2023-05-08T06:42:38.658Z,25.15
2023-05-08T06:45:05.148Z,32.95
2023-05-08T06:47:31.447Z,26.80
2023-05-08T06:49:57.873Z,29.52
2023-05-08T06:52:25.560Z,28.40
2023-05-08T06:54:52.015Z,31.80
2023-05-08T06:57:18.320Z,29.63
2023-05-08T06:59:44.615Z,30.40
2023-05-08T07:02:11.098Z,35.83
2023-05-08T07:04:37.877Z,29.30
2023-05-08T07:07:06.703Z,29.60
2023-05-08T07:09:32.982Z,34.47
2023-05-08T07:11:59.232Z,35.55
2023-05-08T07:14:25.514Z,31.27
2023-05-08T07:16:51.872Z,31.00
2023-05-08T07:19:19.119Z,35.80
2023-05-08T07:21:46.395Z,44.83
2023-05-08T07:24:12.685Z,40.38
2023-05-08T07:26:38.978Z,38.83
2023-05-08T07:29:05.291Z,40.72
2023-05-08T07:31:31.632Z,40.10
2023-05-08T07:33:57.927Z,46.28
2023-05-08T07:36:24.213Z,51.75
2023-05-08T07:38:50.725Z,45.13
2023-05-08T07:41:17.036Z,45.10
2023-05-08T07:43:45.127Z,49.05
2023-05-08T07:46:20.610Z,44.08
2023-05-08T07:48:47.016Z,47.10
2023-05-08T07:51:13.651Z,44.38
2023-05-08T07:53:39.926Z,46.13
2023-05-08T07:56:06.454Z,43.00
2023-05-08T07:58:32.736Z,46.28
2023-05-08T08:00:59.094Z,39.80
2023-05-08T08:03:25.431Z,42.22
2023-05-08T08:05:51.825Z,42.38
2023-05-08T08:08:18.063Z,37.95
2023-05-08T08:10:44.347Z,38.95
2023-05-08T08:13:10.701Z,39.67
2023-05-08T08:15:37.050Z,37.47
2023-05-08T08:18:03.395Z,36.10
2023-05-08T08:20:29.661Z,40.03
2023-05-08T08:22:55.907Z,38.17
2023-05-08T08:25:22.421Z,38.53
2023-05-08T08:27:48.662Z,36.00
2023-05-08T08:30:18.197Z,35.67
2023-05-08T08:32:45.198Z,33.45
2023-05-08T08:35:12.031Z,34.75
2023-05-08T08:37:38.626Z,30.63
2023-05-08T08:40:05.487Z,30.02
2023-05-08T08:42:31.736Z,30.88
2023-05-08T08:44:58.017Z,30.80
2023-05-08T08:47:29.901Z,36.78
2023-05-08T08:49:58.369Z,31.20
2023-05-08T08:52:31.947Z,33.20
2023-05-08T08:55:00.115Z,29.38
2023-05-08T08:57:28.220Z,30.88
2023-05-08T08:59:55.469Z,28.98
2023-05-08T09:02:22.506Z,28.83
2023-05-08T09:04:51.730Z,30.65
2023-05-08T09:07:17.982Z,29.67
2023-05-08T09:09:45.339Z,26.52
2023-05-08T09:12:12.593Z,35.72
2023-05-08T09:14:38.915Z,26.83
2023-05-08T09:17:05.202Z,25.08
2023-05-08T09:19:31.637Z,27.08
2023-05-08T09:21:59.303Z,29.63
2023-05-08T09:24:28.604Z,26.30
2023-05-08T09:26:56.481Z,28.42
2023-05-08T09:29:22.790Z,28.55
2023-05-08T09:31:50.139Z,31.10
2023-05-08T09:34:29.648Z,26.63
2023-05-08T09:36:56.499Z,25.40
2023-05-08T09:39:24.614Z,32.60
2023-05-08T09:42:00.663Z,30.52
2023-05-08T09:44:27.041Z,39.85
2023-05-08T09:47:09.550Z,30.48
2023-05-08T09:49:35.890Z,31.70
2023-05-08T09:52:02.309Z,27.88
2023-05-08T09:54:28.663Z,29.98
2023-05-08T09:56:55.613Z,32.10
2023-05-08T09:59:23.092Z,32.88
2023-05-08T10:01:49.386Z,34.22
2023-05-08T10:04:15.820Z,33.17
2023-05-08T10:06:42.218Z,30.95
2023-05-08T10:09:12.666Z,28.75
2023-05-08T10:11:51.820Z,34.28
2023-05-08T10:14:18.840Z,32.15
2023-05-08T10:16:45.910Z,38.42
2023-05-08T10:19:16.053Z,40.47
2023-05-08T10:21:46.629Z,53.58
2023-05-08T10:24:16.901Z,63.47
2023-05-08T10:26:57.147Z,66.57
2023-05-08T10:29:39.237Z,67.60
2023-05-08T10:32:09.124Z,65.57
2023-05-08T10:34:39.749Z,69.90
2023-05-08T10:37:07.393Z,64.40
2023-05-08T10:39:34.374Z,66.85
2023-05-08T10:42:00.976Z,67.88
2023-05-08T10:44:28.653Z,69.80
2023-05-08T10:46:59.564Z,62.22
2023-05-08T10:49:34.142Z,64.90
2023-05-08T10:52:09.734Z,64.13
2023-05-08T10:54:54.236Z,72.60
2023-05-08T10:57:20.560Z,65.78
2023-05-08T10:59:47.247Z,74.70
2023-05-08T11:02:14.026Z,82.15
2023-05-08T11:04:40.777Z,82.32
2023-05-08T11:07:07.435Z,81.18
2023-05-08T11:09:45.531Z,73.15
2023-05-08T11:12:23.790Z,71.15
2023-05-08T11:15:17.659Z,72.30
2023-05-08T11:17:53.506Z,67.88
2023-05-08T11:20:23.440Z,69.07
2023-05-08T11:22:49.732Z,73.05
2023-05-08T11:25:16.029Z,75.13
2023-05-08T11:27:48.408Z,70.05
2023-05-08T11:30:18.806Z,76.15
2023-05-08T11:35:13.472Z,76.05
2023-05-08T11:37:39.808Z,81.22
2023-05-08T11:40:24.826Z,75.57
2023-05-08T11:42:51.206Z,85.45
2023-05-08T11:45:19.483Z,80.15
2023-05-08T11:47:46.057Z,72.32
2023-05-08T11:50:13.286Z,80.25
2023-05-08T11:52:41.552Z,73.68
2023-05-08T11:55:11.774Z,73.63
2023-05-08T11:57:38.230Z,74.47
2023-05-08T12:00:05.752Z,72.07
2023-05-08T12:02:50.096Z,73.07
2023-05-08T12:05:25.862Z,74.07
2023-05-08T12:07:52.110Z,79.68
2023-05-08T12:10:18.683Z,63.75
2023-05-08T12:12:45.354Z,65.45
2023-05-08T12:15:12.850Z,70.28
2023-05-08T12:17:39.513Z,62.05
2023-05-08T12:20:13.075Z,70.00
2023-05-08T12:22:43.212Z,57.28
2023-05-08T12:25:11.754Z,60.28
2023-05-08T12:27:38.747Z,57.03
2023-05-08T12:30:05.830Z,49.97
2023-05-08T12:32:32.484Z,59.50
2023-05-08T12:34:58.843Z,52.50
2023-05-08T12:37:28.203Z,49.20
2023-05-08T12:39:54.870Z,53.77
2023-05-08T12:42:21.371Z,42.28
2023-05-08T12:44:51.888Z,48.20
2023-05-08T12:47:18.709Z,47.83
2023-05-08T12:49:45.141Z,42.58
2023-05-08T12:52:14.758Z,44.13
2023-05-08T12:54:46.605Z,44.13
2023-05-08T12:57:13.539Z,41.15
2023-05-08T12:59:40.714Z,47.42
2023-05-08T13:02:13.928Z,40.05
2023-05-08T13:04:40.419Z,45.85
2023-05-08T13:07:06.843Z,47.10
2023-05-08T13:09:33.353Z,42.75
2023-05-08T13:11:59.595Z,42.70
2023-05-08T13:14:25.881Z,48.13
2023-05-08T13:16:52.495Z,47.85
2023-05-08T13:19:19.010Z,45.60
2023-05-08T13:21:48.163Z,41.40
2023-05-08T13:24:15.018Z,41.90
2023-05-08T13:26:41.323Z,42.22
2023-05-08T13:29:07.688Z,43.55
2023-05-08T13:31:34.004Z,39.38
2023-05-08T13:34:00.421Z,40.80
2023-05-08T13:36:27.292Z,43.78
2023-05-08T13:38:57.150Z,42.60
2023-05-08T13:41:23.527Z,50.03
2023-05-08T13:43:49.794Z,52.33
2023-05-08T13:46:16.171Z,46.17
2023-05-08T13:48:42.615Z,49.95
2023-05-08T15:03:07.132Z,48.17
2023-05-08T15:05:33.429Z,46.75
2023-05-08T15:08:01.433Z,47.13
2023-05-08T15:10:27.690Z,45.53
2023-05-08T15:12:54.057Z,45.58
2023-05-08T15:15:20.530Z,46.78
2023-05-08T15:17:46.877Z,42.00
2023-05-08T15:20:13.229Z,42.53
2023-05-08T15:22:40.674Z,51.63
2023-05-08T15:25:07.109Z,46.92
2023-05-08T15:27:33.346Z,45.42
2023-05-08T15:29:59.637Z,46.30
2023-05-08T15:32:26.065Z,48.47
2023-05-08T15:34:52.405Z,45.30
2023-05-08T15:37:18.703Z,44.65
2023-05-08T15:39:44.939Z,47.10
2023-05-08T15:42:11.285Z,40.92
2023-05-08T15:44:54.082Z,42.80
2023-05-08T15:47:22.980Z,44.90
2023-05-08T15:49:49.692Z,39.45
2023-05-08T15:52:18.529Z,45.63
2023-05-08T15:54:47.953Z,50.17
2023-05-08T15:57:14.536Z,48.30
2023-05-08T15:59:41.201Z,49.55
2023-05-08T16:02:07.756Z,50.17
2023-05-08T16:04:34.116Z,45.13
2023-05-08T16:07:00.757Z,43.25
2023-05-08T16:09:27.026Z,49.60
2023-05-08T16:11:53.324Z,50.88
2023-05-08T16:14:20.093Z,47.42
2023-05-08T16:16:46.581Z,43.88
2023-05-08T16:19:12.945Z,52.15
2023-05-08T16:21:39.209Z,50.28
2023-05-08T16:24:05.615Z,56.50
2023-05-08T16:26:31.885Z,54.92
2023-05-08T16:28:58.692Z,55.67
2023-05-08T16:31:25.099Z,55.45
2023-05-08T16:33:51.524Z,54.17
2023-05-08T16:36:17.781Z,61.25
2023-05-08T16:38:44.055Z,59.38
2023-05-08T16:41:11.231Z,63.50
2023-05-08T16:43:37.556Z,64.10
2023-05-08T16:46:05.640Z,71.25
2023-05-08T16:48:32.023Z,85.28
2023-05-08T16:50:58.263Z,94.18
2023-05-08T16:53:27.181Z,102.13
2023-05-08T16:55:54.190Z,106.45
2023-05-08T16:58:21.525Z,103.97
2023-05-08T17:00:47.834Z,116.80
2023-05-08T17:03:14.220Z,125.15
2023-05-08T17:05:41.030Z,120.55
2023-05-08T17:08:07.318Z,121.22
2023-05-08T17:10:33.631Z,117.05
2023-05-08T17:12:59.966Z,126.57
2023-05-08T17:15:26.284Z,118.50
2023-05-08T17:17:52.592Z,125.18
2023-05-08T17:20:19.156Z,130.20
2023-05-08T17:22:45.400Z,129.00
2023-05-08T17:25:11.684Z,117.30
2023-05-08T17:27:38.680Z,127.82
2023-05-08T17:30:05.979Z,122.38
2023-05-08T17:32:32.295Z,121.63
2023-05-08T17:34:58.666Z,113.07
2023-05-08T17:37:24.995Z,114.45
2023-05-08T17:39:51.294Z,107.07
2023-05-08T17:42:17.539Z,114.93
2023-05-08T17:44:43.837Z,103.45
2023-05-08T17:47:10.198Z,97.30
2023-05-08T17:49:36.452Z,87.88
2023-05-08T17:52:03.982Z,92.47
2023-05-08T17:54:30.395Z,91.35
2023-05-08T17:56:56.696Z,90.18
2023-05-08T17:59:23.043Z,85.43
2023-05-08T18:01:49.460Z,86.63
2023-05-08T18:04:16.231Z,79.32
2023-05-08T18:06:43.318Z,82.78
2023-05-08T18:09:09.578Z,80.32
2023-05-08T18:11:35.911Z,76.00
2023-05-08T18:14:02.321Z,76.60
2023-05-08T18:16:28.656Z,81.30
2023-05-08T18:18:55.030Z,79.18
2023-05-08T18:21:21.376Z,79.03
2023-05-08T18:23:47.689Z,77.38
2023-05-08T18:26:14.970Z,82.63
2023-05-08T18:28:41.340Z,74.93
2023-05-08T18:31:07.671Z,66.85
2023-05-08T18:33:33.980Z,70.75
2023-05-08T18:36:00.261Z,73.90
2023-05-08T18:38:26.529Z,65.72
2023-05-08T18:40:52.913Z,68.47
2023-05-08T18:43:19.150Z,62.75
2023-05-08T18:45:45.475Z,59.40
2023-05-08T18:48:11.863Z,64.72
2023-05-08T18:50:38.274Z,55.10
2023-05-08T18:53:04.524Z,52.10
2023-05-08T18:55:30.853Z,53.22
2023-05-08T18:57:57.185Z,48.97
2023-05-08T19:00:23.570Z,55.10
2023-05-08T19:02:49.919Z,53.05
2023-05-08T19:05:16.316Z,51.15
2023-05-08T19:07:42.861Z,52.92
2023-05-08T19:10:10.162Z,51.53
2023-05-08T19:12:36.529Z,53.10
2023-05-08T19:15:02.935Z,56.47
2023-05-08T19:17:29.343Z,54.78
2023-05-08T19:19:55.645Z,53.25
2023-05-08T19:22:21.998Z,47.72
2023-05-08T19:24:48.316Z,48.30
2023-05-08T19:27:14.726Z,45.72
2023-05-08T19:29:40.959Z,55.25
2023-05-08T19:32:07.281Z,52.50
2023-05-08T19:34:36.846Z,48.72
2023-05-08T19:37:03.213Z,50.37
2023-05-08T19:39:29.645Z,54.35
2023-05-08T19:41:56.317Z,50.67
2023-05-08T19:44:22.758Z,50.42
2023-05-08T19:46:50.569Z,50.72
2023-05-08T19:49:17.351Z,47.78
2023-05-08T19:51:43.738Z,47.05
2023-05-08T19:54:10.002Z,51.70
2023-05-08T19:56:36.301Z,48.17
2023-05-08T19:59:02.598Z,49.80
2023-05-08T20:01:28.979Z,49.63
2023-05-08T20:03:57.429Z,54.88
2023-05-08T20:06:25.560Z,52.03
2023-05-08T20:08:51.813Z,51.40
2023-05-08T20:11:18.113Z,55.08
2023-05-08T20:13:45.034Z,49.85
2023-05-08T20:16:11.396Z,52.15
2023-05-08T20:18:37.690Z,51.95
2023-05-08T20:21:04.070Z,48.65
2023-05-08T20:23:30.389Z,49.83
2023-05-08T20:25:56.659Z,53.50
2023-05-08T20:28:25.917Z,45.55
2023-05-08T20:30:52.315Z,51.47
2023-05-08T20:33:19.009Z,50.17
2023-05-08T20:35:45.320Z,45.33
2023-05-08T20:38:11.633Z,55.53
2023-05-08T20:40:38.051Z,51.88
2023-05-08T20:43:04.361Z,46.97
2023-05-08T20:45:30.742Z,46.67
2023-05-08T20:47:57.239Z,44.92
2023-05-08T20:50:23.561Z,50.58
2023-05-08T20:52:49.835Z,47.05
2023-05-08T20:55:16.342Z,47.17
2023-05-08T20:57:42.839Z,49.22
2023-05-08T21:00:09.333Z,49.33
2023-05-08T21:02:38.681Z,49.10
2023-05-08T21:05:05.793Z,49.23
2023-05-08T21:07:32.152Z,51.40
2023-05-08T21:09:59.676Z,52.38
2023-05-08T21:12:26.419Z,56.10
2023-05-08T21:14:52.695Z,55.28
2023-05-08T21:17:18.992Z,50.85
2023-05-08T21:19:45.329Z,52.42
2023-05-08T21:22:13.735Z,57.03
2023-05-08T21:24:43.383Z,51.70
2023-05-08T21:27:09.677Z,58.00
2023-05-08T21:29:35.996Z,55.08
2023-05-08T21:32:02.317Z,52.72
2023-05-08T21:34:28.709Z,47.63
2023-05-08T21:36:55.028Z,52.55
2023-05-08T21:39:21.318Z,54.92
2023-05-08T21:41:48.082Z,56.03
2023-05-08T21:44:15.376Z,54.35
2023-05-08T21:46:41.719Z,59.30
2023-05-08T21:49:07.993Z,54.38
2023-05-08T21:51:34.736Z,52.72
2023-05-08T21:54:01.413Z,56.78
2023-05-08T21:56:27.701Z,56.55
2023-05-08T21:58:54.062Z,63.55
2023-05-08T22:01:20.386Z,56.53
2023-05-08T22:03:46.838Z,63.33
2023-05-08T22:06:13.155Z,60.67
2023-05-08T22:08:39.440Z,61.40
2023-05-08T22:11:05.735Z,58.08
2023-05-08T22:13:32.020Z,57.58
2023-05-08T22:15:58.277Z,60.13
2023-05-08T22:18:24.569Z,61.33
2023-05-08T22:20:50.824Z,59.47
2023-05-08T22:23:17.118Z,67.20
2023-05-08T22:25:43.460Z,59.83
2023-05-08T22:28:09.781Z,61.65
2023-05-08T22:30:36.093Z,58.85
2023-05-08T22:33:02.454Z,61.00
2023-05-08T22:35:28.767Z,57.75
2023-05-08T22:37:57.232Z,61.03
2023-05-08T22:40:23.753Z,55.28
2023-05-08T22:42:53.522Z,59.90
2023-05-08T22:45:20.069Z,59.13
2023-05-08T22:47:46.401Z,64.13
2023-05-08T22:50:12.689Z,62.63
2023-05-08T22:52:39.202Z,59.08
2023-05-08T22:55:05.825Z,57.85
2023-05-08T22:57:32.083Z,62.97
2023-05-08T22:59:58.354Z,58.70
2023-05-08T23:02:24.712Z,65.25
2023-05-08T23:04:51.068Z,62.15
2023-05-08T23:07:17.382Z,60.58
2023-05-08T23:09:43.615Z,58.83
2023-05-08T23:12:09.905Z,65.53
2023-05-08T23:14:36.159Z,62.95
2023-05-08T23:17:02.443Z,59.50
2023-05-08T23:19:28.756Z,65.90
2023-05-08T23:21:55.049Z,64.97
2023-05-08T23:24:21.368Z,70.07
2023-05-08T23:26:49.573Z,68.80
2023-05-08T23:29:15.821Z,63.50
2023-05-08T23:31:42.168Z,67.50
2023-05-08T23:34:09.080Z,65.30
2023-05-08T23:36:35.368Z,60.17
2023-05-08T23:39:01.734Z,62.92
2023-05-08T23:41:28.095Z,60.10
2023-05-08T23:43:54.787Z,59.90
2023-05-08T23:46:21.048Z,65.45
2023-05-08T23:48:47.361Z,62.58
2023-05-08T23:51:13.599Z,67.03
2023-05-08T23:53:39.951Z,63.90
2023-05-08T23:56:06.406Z,64.50
2023-05-08T23:58:32.666Z,63.72
